マイアミ の空港の天気 - METARとTAF

マイアミ国際空港 ( KMIA / MIA ) - アメリカ フロリダ州マイアミ
飛行場実況気象(Metar)
観測時間11/30 11:53 EST (11/30 16:53 UTC)
風向・風速東南東 4m/s
視程10km以上
天気現象
全天の8割程度の雲 雲底高度 700m
全天の8割程度の雲 雲底高度 1070m
全天の8割程度の雲 雲底高度 7620m
気温28.9℃
湿度72%
気圧1018.9hPa
METARKMIA 301653Z 11008KT 10SM BKN023 BKN035 BKN250 29/23 A3009 RMK AO2 SLP189 T02890233 $
過去の天気等 Google飛行場航空写真 Wunderground天気予報

過去48時間のMETAR

飛行場予報(TAF)
発表時間: 11/30 12:20 EST (11/30 17:20 UTC)
予報対象時間: 30日13時 EST ~ 1日19時 EST
風向・風速東南東 6m/s
視程10km以上
全天の4割程度の雲 雲底高度 670m
全天の4割程度の雲 雲底高度 7620m
30日16時 EST から
風向・風速東 4m/s
視程10km以上
天気現象周辺で雷
全天の4割程度の積乱雲 雲底高度 1070m
全天の8割程度の雲 雲底高度 1520m
全天の8割程度の雲 雲底高度 3050m
30日21時 EST から
風向・風速不定 2m/s
視程10km以上
全天の4割程度の雲 雲底高度 1520m
全天の4割程度の雲 雲底高度 3050m
全天の8割程度の雲 雲底高度 7620m
1日5時 EST から
風向・風速北北東 4m/s
視程10km以上
天気現象周辺でしゅう雨
全天の4割程度の雲 雲底高度 910m
全天の8割程度の雲 雲底高度 2440m
KMIA 301720Z 3018/0124 12011KT P6SM SCT022 SCT250
FM302100 10007KT P6SM VCTS SCT035CB BKN050 BKN100
FM010200 VRB04KT P6SM SCT050 SCT100 BKN250
FM011000 02007KT P6SM VCSH SCT030 BKN080